Time;durP1;ratioP1;P1;durP2;ratioP2;P2;SDS_P1;SDS_P2;PMS_P1;PMS_P2;Temp;Humidity;BMP_temperature;BMP_pressure;BME280_temperature;BME280_humidity;BME280_pressure;Samples;Min_cycle;Max_cycle;Signal;HPM_P1;HPM_P2
2023/08/09 00:02:15;;;;;;;;;;;;;;;23.92;52.96;101058.69;7396249;19;1517;-39
2023/08/09 00:04:43;;;;;;;;;;;;;;;23.91;52.99;101062.38;7396157;19;1767;-39
2023/08/09 00:07:12;;;;;;;;;;;;;;;24.02;52.53;101065.66;7396528;19;1508;-39
2023/08/09 00:09:40;;;;;;;;;;;;;;;23.97;52.44;101061.72;7395749;19;1492;-39
2023/08/09 00:12:09;;;;;;;;;;;;;;;23.94;52.33;101048.56;7395359;19;1726;-39
2023/08/09 00:14:37;;;;;;;;;;;;;;;23.90;52.33;101063.41;7393511;19;1895;-39
2023/08/09 00:17:05;;;;;;;;;;;;;;;23.88;52.50;101058.16;7394037;19;1679;-40
2023/08/09 00:19:36;;;;;;;;;;;;;;;23.94;52.26;101053.97;7396939;19;1809;-40
2023/08/09 00:22:05;;;;;;;;;;;;;;;23.90;52.06;101055.28;7395876;19;1409;-40
2023/08/09 00:24:33;;;;;;;;;;;;;;;23.89;52.29;101061.69;7397804;19;987;-40
2023/08/09 00:27:01;;;;;;;;;;;;;;;23.86;52.23;101062.03;7401336;19;1857;-40
2023/08/09 00:29:30;;;;;;;;;;;;;;;23.87;52.27;101071.81;7399940;19;1481;-40
2023/08/09 00:31:58;;;;;;;;;;;;;;;23.94;51.86;101043.16;7403522;19;1746;-39
2023/08/09 00:34:26;;;;;;;;;;;;;;;23.84;52.40;101059.47;7402214;19;1830;-39
2023/08/09 00:36:57;;;;;;;;;;;;;;;24.06;52.21;101060.78;7403695;19;1741;-39
2023/08/09 00:39:25;;;;;;;;;;;;;;;24.04;51.98;101051.16;7403878;19;2130;-39
2023/08/09 00:41:53;;;;;;;;;;;;;;;23.97;52.19;101064.44;7403712;19;1919;-39
2023/08/09 00:44:22;;;;;;;;;;;;;;;23.97;52.05;101067.13;7402970;19;1861;-39
2023/08/09 00:46:50;;;;;;;;;;;;;;;24.05;52.24;101058.22;7402984;19;1852;-39
2023/08/09 00:49:18;;;;;;;;;;;;;;;24.15;51.69;101054.41;7403400;19;1453;-39
2023/08/09 00:51:47;;;;;;;;;;;;;;;24.12;51.73;101062.00;7403330;19;986;-39
2023/08/09 00:54:19;;;;;;;;;;;;;;;24.01;51.65;101052.28;7399848;19;1842;-39
2023/08/09 00:56:47;;;;;;;;;;;;;;;24.09;51.38;101065.84;7402299;19;1952;-39
2023/08/09 00:59:16;;;;;;;;;;;;;;;24.01;51.86;101065.81;7401452;19;1584;-39
2023/08/09 01:01:44;;;;;;;;;;;;;;;23.92;51.38;101074.88;7402358;19;1833;-39
2023/08/09 01:04:12;;;;;;;;;;;;;;;23.92;51.71;101070.31;7401795;19;1960;-39
2023/08/09 01:06:46;;;;;;;;;;;;;;;23.89;51.41;101069.78;7401625;19;1347;-39
2023/08/09 01:09:25;;;;;;;;;;;;;;;24.01;51.10;101068.50;7400678;19;1726;-39
2023/08/09 01:11:56;;;;;;;;;;;;;;;23.95;51.55;101071.84;7401757;19;1718;-39
2023/08/09 01:14:26;;;;;;;;;;;;;;;23.98;51.07;101066.13;7399290;19;1873;-39
2023/08/09 01:16:56;;;;;;;;;;;;;;;23.92;50.91;101058.69;7400452;19;1847;-39
2023/08/09 01:19:29;;;;;;;;;;;;;;;23.74;51.08;101062.25;7401263;19;1839;-39
2023/08/09 01:21:58;;;;;;;;;;;;;;;23.72;51.02;101085.88;7402855;19;1133;-39
2023/08/09 01:24:29;;;;;;;;;;;;;;;23.61;51.76;101078.03;7403168;19;964;-39
2023/08/09 01:26:58;;;;;;;;;;;;;;;23.74;51.17;101059.56;7402051;19;1928;-39
2023/08/09 01:29:26;;;;;;;;;;;;;;;23.81;51.49;101076.88;7398400;19;1841;-39
2023/08/09 01:31:55;;;;;;;;;;;;;;;23.99;50.90;101071.38;7400319;19;2087;-39
2023/08/09 01:34:23;;;;;;;;;;;;;;;23.92;50.85;101078.44;7400715;19;1852;-39
2023/08/09 01:36:52;;;;;;;;;;;;;;;23.82;51.03;101083.94;7401761;19;1715;-39
2023/08/09 01:39:23;;;;;;;;;;;;;;;23.95;51.09;101082.66;7400608;19;1116;-39
2023/08/09 01:41:54;;;;;;;;;;;;;;;23.94;50.84;101078.28;7402531;19;1492;-39
2023/08/09 01:44:23;;;;;;;;;;;;;;;23.94;50.73;101092.63;7400776;19;1649;-39
2023/08/09 01:46:52;;;;;;;;;;;;;;;23.87;50.93;101080.75;7400928;19;1940;-39
2023/08/09 01:49:22;;;;;;;;;;;;;;;24.03;51.03;101077.28;7401982;19;1730;-39
2023/08/09 01:51:51;;;;;;;;;;;;;;;23.95;50.79;101085.34;7401677;19;965;-39
2023/08/09 01:54:19;;;;;;;;;;;;;;;23.93;50.46;101076.56;7399576;19;1872;-39
2023/08/09 01:56:45;;;;;;;;;;;;;;;23.97;50.42;101086.91;7401152;19;1873;-39
2023/08/09 01:59:16;;;;;;;;;;;;;;;24.04;50.75;101088.97;7400518;19;1762;-39
2023/08/09 02:01:44;;;;;;;;;;;;;;;24.04;50.62;101091.66;7401253;19;1087;-39
2023/08/09 02:04:13;;;;;;;;;;;;;;;23.97;50.36;101097.72;7401709;19;1924;-39
2023/08/09 02:06:41;;;;;;;;;;;;;;;23.96;49.70;101114.06;7400675;19;1944;-39
2023/08/09 02:09:10;;;;;;;;;;;;;;;23.81;49.97;101106.56;7399996;19;1841;-39
2023/08/09 02:11:38;;;;;;;;;;;;;;;23.72;49.64;101125.53;7399971;19;1571;-39
2023/08/09 02:14:07;;;;;;;;;;;;;;;23.76;50.27;101108.84;7399107;19;1847;-39
2023/08/09 02:16:38;;;;;;;;;;;;;;;23.85;50.22;101123.28;7400199;19;1668;-39
2023/08/09 02:19:09;;;;;;;;;;;;;;;23.79;50.25;101108.56;7399720;19;1834;-39
2023/08/09 02:21:39;;;;;;;;;;;;;;;23.63;50.25;101119.22;7399418;19;988;-39
2023/08/09 02:24:08;;;;;;;;;;;;;;;23.19;50.23;101060.69;7399262;19;2019;-39
2023/08/09 02:26:38;;;;;;;;;;;;;;;23.70;49.86;101125.69;7399676;19;1502;-39
2023/08/09 02:29:07;;;;;;;;;;;;;;;23.55;50.19;101125.41;7400142;19;1738;-39
2023/08/09 02:31:38;;;;;;;;;;;;;;;23.43;50.53;101122.09;7399249;19;1481;-39
2023/08/09 02:34:06;;;;;;;;;;;;;;;23.35;50.60;101118.50;7399863;19;1846;-39
2023/08/09 02:36:34;;;;;;;;;;;;;;;23.32;50.78;101125.06;7399325;19;1505;-39
2023/08/09 02:39:04;;;;;;;;;;;;;;;23.27;50.86;101113.88;7399920;19;1955;-39
2023/08/09 02:41:34;;;;;;;;;;;;;;;23.23;51.04;101134.06;7398484;19;1896;-39
2023/08/09 02:44:02;;;;;;;;;;;;;;;23.27;50.85;101127.38;7399973;19;1722;-39
2023/08/09 02:46:31;;;;;;;;;;;;;;;23.33;50.87;101123.19;7399212;19;1816;-39
2023/08/09 02:49:01;;;;;;;;;;;;;;;23.26;50.57;101117.59;7396522;19;1936;-39
2023/08/09 02:51:30;;;;;;;;;;;;;;;23.24;51.02;101106.09;7398918;19;1113;-39
2023/08/09 02:54:02;;;;;;;;;;;;;;;23.33;50.97;101136.69;7397549;19;1920;-39
2023/08/09 02:56:30;;;;;;;;;;;;;;;23.37;50.72;101136.22;7399191;19;1718;-39
2023/08/09 02:58:59;;;;;;;;;;;;;;;23.41;50.76;101126.81;7399879;19;1034;-39
2023/08/09 03:01:29;;;;;;;;;;;;;;;23.45;50.59;101126.50;7398369;19;1866;-39
2023/08/09 03:03:57;;;;;;;;;;;;;;;23.42;50.34;101149.28;7398374;19;1956;-39
2023/08/09 03:06:28;;;;;;;;;;;;;;;23.28;50.33;101134.47;7398841;19;1797;-39
2023/08/09 03:08:56;;;;;;;;;;;;;;;23.29;50.19;101140.72;7398422;19;1769;-39
2023/08/09 03:11:26;;;;;;;;;;;;;;;23.23;50.35;101143.00;7395555;19;1406;-39
2023/08/09 03:13:54;;;;;;;;;;;;;;;23.33;50.17;101148.31;7397239;19;1864;-39
2023/08/09 03:16:23;;;;;;;;;;;;;;;23.38;50.65;101154.13;7395998;19;1861;-39
2023/08/09 03:18:51;;;;;;;;;;;;;;;23.42;50.49;101149.28;7397763;19;1807;-39
2023/08/09 03:21:19;;;;;;;;;;;;;;;23.41;50.54;101147.56;7397524;19;1016;-39
2023/08/09 03:23:50;;;;;;;;;;;;;;;23.49;50.04;101154.88;7397418;19;1952;-39
2023/08/09 03:26:19;;;;;;;;;;;;;;;23.35;50.38;101140.09;7397695;19;1504;-39
2023/08/09 03:28:47;;;;;;;;;;;;;;;23.36;50.34;101158.00;7397949;19;1008;-39
2023/08/09 03:31:15;;;;;;;;;;;;;;;23.41;50.28;101158.34;7397438;19;2026;-39
2023/08/09 03:33:43;;;;;;;;;;;;;;;23.48;49.74;101153.19;7397677;19;1936;-39
2023/08/09 03:36:12;;;;;;;;;;;;;;;23.30;49.56;101143.25;7397889;19;1860;-39
2023/08/09 03:38:43;;;;;;;;;;;;;;;23.25;49.79;101158.22;7396613;19;1484;-39
2023/08/09 03:41:14;;;;;;;;;;;;;;;23.20;50.10;101161.38;7397054;19;1810;-39
2023/08/09 03:43:42;;;;;;;;;;;;;;;23.24;49.98;101170.88;7396584;19;1822;-39
2023/08/09 03:46:10;;;;;;;;;;;;;;;23.26;49.69;101165.28;7396605;19;1726;-39
2023/08/09 03:48:39;;;;;;;;;;;;;;;23.14;50.01;101170.94;7396265;19;1766;-39
2023/08/09 03:51:07;;;;;;;;;;;;;;;23.13;50.27;101179.16;7396423;19;995;-39
2023/08/09 03:53:35;;;;;;;;;;;;;;;23.16;50.32;101176.19;7394326;19;1828;-39
2023/08/09 03:56:03;;;;;;;;;;;;;;;23.20;50.57;101181.09;7395329;19;1888;-39
2023/08/09 03:58:35;;;;;;;;;;;;;;;23.29;50.19;101186.59;7397985;19;945;-39
2023/08/09 04:01:03;;;;;;;;;;;;;;;23.26;50.40;101182.34;7392037;19;1865;-39
2023/08/09 04:03:32;;;;;;;;;;;;;;;23.53;49.84;101183.25;7395717;19;1524;-39
2023/08/09 04:06:02;;;;;;;;;;;;;;;23.54;49.74;101195.75;7396504;19;1560;-39
2023/08/09 04:08:30;;;;;;;;;;;;;;;23.49;49.86;101180.00;7395997;19;1564;-39
2023/08/09 04:10:59;;;;;;;;;;;;;;;23.59;49.58;101199.66;7396507;19;1544;-39
2023/08/09 04:13:27;;;;;;;;;;;;;;;23.63;49.41;101202.91;7396215;19;1933;-39
2023/08/09 04:15:59;;;;;;;;;;;;;;;23.68;49.52;101184.41;7394306;19;1861;-39
2023/08/09 04:18:27;;;;;;;;;;;;;;;23.71;49.26;101189.47;7331598;19;13749;-39
2023/08/09 04:20:56;;;;;;;;;;;;;;;23.64;49.64;101196.53;7394133;19;1384;-44
2023/08/09 04:23:24;;;;;;;;;;;;;;;23.72;49.72;101210.09;7390674;19;1629;-42
2023/08/09 04:25:52;;;;;;;;;;;;;;;23.89;49.68;101199.44;7394579;19;1516;-42
2023/08/09 04:28:21;;;;;;;;;;;;;;;23.76;49.86;101203.38;7394736;19;1569;-42
2023/08/09 04:30:49;;;;;;;;;;;;;;;23.80;49.98;101199.38;7391994;19;1453;-42
2023/08/09 04:33:20;;;;;;;;;;;;;;;23.95;49.74;101210.44;7392978;19;1553;-42
2023/08/09 04:35:48;;;;;;;;;;;;;;;23.99;49.91;101202.88;7391652;19;1841;-42
2023/08/09 04:38:16;;;;;;;;;;;;;;;24.18;49.90;101196.44;7389285;19;1462;-39
2023/08/09 04:40:45;;;;;;;;;;;;;;;24.16;49.77;101202.00;7389336;19;1643;-40
2023/08/09 04:43:13;;;;;;;;;;;;;;;24.01;49.94;101203.56;7390994;19;1533;-39
2023/08/09 04:45:42;;;;;;;;;;;;;;;24.08;49.88;101204.66;7387817;19;1887;-39
2023/08/09 04:48:17;;;;;;;;;;;;;;;24.29;49.49;101192.59;7393147;19;1231;-44
2023/08/09 04:50:48;;;;;;;;;;;;;;;24.23;49.85;101213.00;7393967;19;1295;-39
2023/08/09 04:53:17;;;;;;;;;;;;;;;24.42;49.33;101209.25;7391870;19;1240;-39
2023/08/09 04:55:45;;;;;;;;;;;;;;;24.48;49.30;101205.91;7391248;19;1847;-39
2023/08/09 04:58:13;;;;;;;;;;;;;;;24.37;49.16;101198.94;7390644;19;1275;-39
2023/08/09 05:00:41;;;;;;;;;;;;;;;24.36;49.33;101204.47;7388597;19;1666;-39
2023/08/09 05:03:09;;;;;;;;;;;;;;;24.29;49.38;101201.59;7387925;19;1417;-39
2023/08/09 05:05:38;;;;;;;;;;;;;;;24.53;49.32;101217.13;7393351;19;1458;-39
2023/08/09 05:08:09;;;;;;;;;;;;;;;24.58;49.27;101209.34;7393154;19;1537;-39
2023/08/09 05:10:37;;;;;;;;;;;;;;;24.54;49.58;101210.69;7388397;19;1456;-39
2023/08/09 05:13:06;;;;;;;;;;;;;;;24.33;50.10;101216.47;7393475;19;1505;-40
2023/08/09 05:15:34;;;;;;;;;;;;;;;24.17;50.22;101213.66;7396610;19;1834;-40
2023/08/09 05:18:02;;;;;;;;;;;;;;;24.22;50.47;101217.56;7395659;19;1295;-40
2023/08/09 05:20:31;;;;;;;;;;;;;;;24.20;50.58;101225.00;7396823;19;1192;-39
2023/08/09 05:22:59;;;;;;;;;;;;;;;24.40;50.57;101236.44;7389108;19;1969;-43
2023/08/09 05:25:30;;;;;;;;;;;;;;;24.36;50.54;101226.09;7390631;19;1573;-43
2023/08/09 05:27:58;;;;;;;;;;;;;;;24.40;50.47;101232.88;7393192;19;1414;-43
2023/08/09 05:30:27;;;;;;;;;;;;;;;24.38;50.44;101218.69;7394297;19;1388;-43
2023/08/09 05:32:57;;;;;;;;;;;;;;;24.33;50.36;101223.72;7391428;19;1519;-43
2023/08/09 05:35:26;;;;;;;;;;;;;;;24.01;51.29;101211.69;7392494;19;1853;-43
2023/08/09 05:37:56;;;;;;;;;;;;;;;23.99;51.33;101227.19;7390295;19;1462;-42
2023/08/09 05:40:24;;;;;;;;;;;;;;;24.19;50.60;101225.13;7392077;19;1402;-43
2023/08/09 05:42:55;;;;;;;;;;;;;;;24.09;51.44;101222.53;7389608;19;1619;-40
2023/08/09 05:45:23;;;;;;;;;;;;;;;24.04;51.53;101205.97;7388933;19;1381;-41
2023/08/09 05:47:52;;;;;;;;;;;;;;;24.28;50.83;101223.34;7391306;19;1561;-42
2023/08/09 05:50:20;;;;;;;;;;;;;;;24.37;50.94;101253.00;7388137;19;1574;-46
2023/08/09 05:52:48;;;;;;;;;;;;;;;24.21;51.03;101228.53;7387888;19;1544;-42
2023/08/09 05:55:17;;;;;;;;;;;;;;;24.30;50.93;101233.00;7390230;19;1904;-43
2023/08/09 05:57:45;;;;;;;;;;;;;;;24.41;50.78;101234.56;7392485;19;1920;-43
2023/08/09 06:00:18;;;;;;;;;;;;;;;24.53;50.60;101214.41;7391198;19;1441;-40
2023/08/09 06:02:48;;;;;;;;;;;;;;;24.75;49.59;101225.66;7388482;19;1466;-40
2023/08/09 06:05:23;;;;;;;;;;;;;;;24.77;49.61;101231.75;7317485;19;13270;-40
2023/08/09 06:07:52;;;;;;;;;;;;;;;24.97;49.96;101235.91;7390291;19;1520;-40
2023/08/09 06:10:21;;;;;;;;;;;;;;;25.04;49.73;101249.59;7391016;19;1523;-40
2023/08/09 06:12:50;;;;;;;;;;;;;;;24.87;50.42;101221.66;7388933;19;1413;-40
2023/08/09 06:15:21;;;;;;;;;;;;;;;24.97;50.64;101222.38;7387843;19;1853;-40
2023/08/09 06:17:50;;;;;;;;;;;;;;;25.08;50.60;101217.66;7388441;19;1543;-39
2023/08/09 06:20:21;;;;;;;;;;;;;;;25.10;51.49;101221.06;7389466;19;1483;-40
2023/08/09 06:22:50;;;;;;;;;;;;;;;25.20;51.81;101230.72;7390415;19;1369;-40
2023/08/09 06:25:19;;;;;;;;;;;;;;;25.21;52.16;101220.75;7389813;19;1385;-40
2023/08/09 06:27:47;;;;;;;;;;;;;;;25.27;51.06;101233.66;7390618;19;1453;-40
2023/08/09 06:30:15;;;;;;;;;;;;;;;25.34;51.50;101245.50;7392185;19;1404;-40
2023/08/09 06:32:48;;;;;;;;;;;;;;;25.32;50.62;101228.56;7388168;19;1535;-40
2023/08/09 06:35:16;;;;;;;;;;;;;;;25.30;50.15;101230.59;7394326;19;1865;-40
2023/08/09 06:37:44;;;;;;;;;;;;;;;25.26;51.93;101226.53;7392718;19;1515;-40
2023/08/09 06:40:16;;;;;;;;;;;;;;;25.32;52.19;101225.03;7393609;19;1365;-39
2023/08/09 06:42:44;;;;;;;;;;;;;;;25.16;52.73;101204.97;7392616;19;1802;-40
2023/08/09 06:45:13;;;;;;;;;;;;;;;25.14;52.64;101227.81;7392740;19;1737;-40
2023/08/09 06:47:41;;;;;;;;;;;;;;;25.05;55.26;101215.28;7393372;19;1456;-40
2023/08/09 06:50:12;;;;;;;;;;;;;;;24.95;56.51;101218.97;7395033;19;1036;-40
2023/08/09 06:52:41;;;;;;;;;;;;;;;24.88;57.72;101217.09;7391058;19;2034;-40
2023/08/09 06:55:10;;;;;;;;;;;;;;;24.89;56.62;101224.19;7391490;19;1868;-40
2023/08/09 06:57:38;;;;;;;;;;;;;;;24.44;57.03;101142.34;7393674;19;1154;-40
2023/08/09 07:00:15;;;;;;;;;;;;;;;24.90;57.03;101225.88;7391366;19;1900;-40
2023/08/09 07:02:45;;;;;;;;;;;;;;;24.90;56.64;101215.91;7393758;19;1762;-40
2023/08/09 07:05:18;;;;;;;;;;;;;;;24.93;56.21;101209.31;7393231;19;1702;-40
2023/08/09 07:07:47;;;;;;;;;;;;;;;24.90;56.15;101204.25;7393076;19;1365;-40
2023/08/09 07:10:16;;;;;;;;;;;;;;;24.92;56.38;101222.00;7393193;19;1362;-44
2023/08/09 07:12:45;;;;;;;;;;;;;;;24.95;56.46;101202.75;7396936;19;1813;-40
2023/08/09 07:15:13;;;;;;;;;;;;;;;24.94;55.98;101194.78;7396750;19;1872;-40
2023/08/09 07:17:42;;;;;;;;;;;;;;;24.95;56.55;101210.03;7397924;19;1979;-40
2023/08/09 07:20:14;;;;;;;;;;;;;;;24.95;56.10;101197.34;7396402;19;1481;-40
2023/08/09 07:22:45;;;;;;;;;;;;;;;24.97;55.62;101189.91;7395936;19;1529;-40
2023/08/09 07:25:16;;;;;;;;;;;;;;;24.98;55.72;101190.75;7397197;19;1035;-40
2023/08/09 07:27:45;;;;;;;;;;;;;;;25.02;55.72;101195.66;7395779;19;1631;-40
2023/08/09 07:30:15;;;;;;;;;;;;;;;25.00;55.42;101194.13;7394814;19;1956;-40
2023/08/09 07:32:43;;;;;;;;;;;;;;;25.01;55.56;101191.25;7395561;19;1817;-40
2023/08/09 07:35:12;;;;;;;;;;;;;;;25.01;55.64;101193.97;7394421;19;1839;-39
2023/08/09 07:37:41;;;;;;;;;;;;;;;25.01;55.92;101185.84;7394162;19;1416;-40
2023/08/09 07:40:13;;;;;;;;;;;;;;;25.02;55.51;101192.94;7397180;19;1722;-40
2023/08/09 07:42:42;;;;;;;;;;;;;;;25.04;55.94;101186.53;7394989;19;1321;-40
2023/08/09 07:45:12;;;;;;;;;;;;;;;25.04;55.78;101190.06;7395898;19;1711;-40
2023/08/09 07:47:42;;;;;;;;;;;;;;;25.05;55.44;101186.38;7395353;19;1349;-39
2023/08/09 07:50:11;;;;;;;;;;;;;;;25.04;55.61;101183.81;7397354;19;1106;-40
2023/08/09 07:52:39;;;;;;;;;;;;;;;25.07;55.88;101169.94;7394033;19;1777;-40
2023/08/09 07:55:08;;;;;;;;;;;;;;;25.04;55.77;101173.00;7394366;19;1846;-40
2023/08/09 07:57:39;;;;;;;;;;;;;;;25.05;55.80;101182.81;7391922;19;1579;-40
2023/08/09 08:00:11;;;;;;;;;;;;;;;25.02;55.85;101160.47;7396449;19;1029;-40
2023/08/09 08:02:39;;;;;;;;;;;;;;;25.05;55.89;101161.16;7396744;19;956;-40
2023/08/09 08:05:08;;;;;;;;;;;;;;;25.05;55.63;101159.31;7393548;19;1465;-40
2023/08/09 08:07:36;;;;;;;;;;;;;;;25.06;55.76;101161.00;7393473;19;1611;-40
2023/08/09 08:10:05;;;;;;;;;;;;;;;25.08;55.41;101164.38;7395366;19;1862;-40
2023/08/09 08:12:33;;;;;;;;;;;;;;;25.10;55.66;101162.34;7396582;19;1472;-40
2023/08/09 08:15:04;;;;;;;;;;;;;;;25.10;55.58;101164.22;7395861;19;1553;-40
2023/08/09 08:17:32;;;;;;;;;;;;;;;25.12;55.73;101146.78;7393621;19;1822;-40
2023/08/09 08:20:00;;;;;;;;;;;;;;;25.12;55.59;101140.53;7394783;19;1659;-40
2023/08/09 08:22:29;;;;;;;;;;;;;;;25.13;55.55;101147.66;7391073;19;1817;-40
2023/08/09 08:24:57;;;;;;;;;;;;;;;25.11;55.57;101145.13;7395879;19;921;-40
2023/08/09 08:27:27;;;;;;;;;;;;;;;25.11;55.53;101126.16;7395686;19;1944;-40
2023/08/09 08:29:56;;;;;;;;;;;;;;;25.11;55.61;101146.94;7394016;19;1754;-40
2023/08/09 08:32:27;;;;;;;;;;;;;;;25.09;55.77;101128.19;7394537;19;1380;-40
2023/08/09 08:34:56;;;;;;;;;;;;;;;25.09;55.48;101143.56;7395612;19;1066;-40
2023/08/09 08:37:24;;;;;;;;;;;;;;;25.12;55.51;101143.25;7391591;19;1870;-40
2023/08/09 08:39:53;;;;;;;;;;;;;;;25.09;55.86;101140.88;7394328;19;1358;-40
2023/08/09 08:42:21;;;;;;;;;;;;;;;25.09;55.83;101135.44;7394750;19;1449;-40
2023/08/09 08:44:49;;;;;;;;;;;;;;;25.05;55.82;101142.22;7394186;19;1014;-40
2023/08/09 08:47:19;;;;;;;;;;;;;;;25.04;56.09;101125.13;7396382;19;1966;-40
2023/08/09 08:49:51;;;;;;;;;;;;;;;25.02;56.03;101140.69;7402337;19;1725;-40
2023/08/09 08:52:21;;;;;;;;;;;;;;;24.99;56.10;101124.81;7401188;19;1793;-40
2023/08/09 08:54:50;;;;;;;;;;;;;;;24.97;56.56;101134.94;7400606;19;1365;-40
2023/08/09 08:57:18;;;;;;;;;;;;;;;24.95;56.47;101124.28;7401245;19;1857;-40
2023/08/09 08:59:46;;;;;;;;;;;;;;;24.96;56.74;101127.84;7402823;19;1793;-40
2023/08/09 09:02:15;;;;;;;;;;;;;;;24.93;56.87;101112.78;7400936;19;1461;-40
2023/08/09 09:04:43;;;;;;;;;;;;;;;24.94;56.69;101106.34;7401601;19;1590;-39
2023/08/09 09:07:14;;;;;;;;;;;;;;;24.94;56.77;101116.34;7402307;19;1774;-40
2023/08/09 09:09:46;;;;;;;;;;;;;;;24.94;56.76;101108.22;7403555;19;1051;-40
2023/08/09 09:12:14;;;;;;;;;;;;;;;24.94;56.69;101109.06;7402996;19;1816;-40
2023/08/09 09:14:42;;;;;;;;;;;;;;;24.93;56.78;101101.09;7401897;19;1897;-40
2023/08/09 09:17:10;;;;;;;;;;;;;;;24.97;56.93;101097.91;7400540;19;1855;-39
2023/08/09 09:19:39;;;;;;;;;;;;;;;24.98;56.79;101105.00;7402595;19;1961;-40
2023/08/09 09:22:07;;;;;;;;;;;;;;;24.97;56.64;101097.91;7402513;19;1012;-40
2023/08/09 09:24:39;;;;;;;;;;;;;;;24.96;56.81;101107.03;7403703;19;1794;-40
2023/08/09 09:27:07;;;;;;;;;;;;;;;24.94;56.96;101094.69;7401391;19;1905;-40
2023/08/09 09:29:35;;;;;;;;;;;;;;;24.92;56.99;101089.44;7399712;19;1943;-40
2023/08/09 09:32:08;;;;;;;;;;;;;;;24.90;57.00;101091.47;7402336;19;1832;-40
2023/08/09 09:34:38;;;;;;;;;;;;;;;24.90;56.83;101096.88;7401557;19;1824;-40
2023/08/09 09:37:06;;;;;;;;;;;;;;;24.93;57.03;101088.44;7400308;19;1849;-40
2023/08/09 09:39:34;;;;;;;;;;;;;;;24.92;57.34;101097.56;7400857;19;1860;-40
2023/08/09 09:42:05;;;;;;;;;;;;;;;24.90;57.07;101090.63;7402665;19;1232;-40
2023/08/09 09:44:34;;;;;;;;;;;;;;;24.89;56.99;101084.38;7402349;19;1860;-40
2023/08/09 09:47:03;;;;;;;;;;;;;;;24.88;57.41;101077.25;7401681;19;1802;-40
2023/08/09 09:49:35;;;;;;;;;;;;;;;24.86;57.22;101079.28;7401391;19;1890;-40
2023/08/09 09:52:04;;;;;;;;;;;;;;;24.89;57.27;101078.97;7399654;19;1015;-39
2023/08/09 09:54:32;;;;;;;;;;;;;;;24.87;57.25;101081.00;7399746;19;1613;-40
2023/08/09 09:57:01;;;;;;;;;;;;;;;24.89;57.41;101083.50;7399282;19;1861;-40
2023/08/09 09:59:32;;;;;;;;;;;;;;;24.88;57.21;101071.00;7398330;19;1864;-39
2023/08/09 10:02:00;;;;;;;;;;;;;;;24.95;56.73;101070.19;7398537;19;1733;-40
2023/08/09 10:04:29;;;;;;;;;;;;;;;25.09;56.34;101073.22;7397939;19;1847;-40
2023/08/09 10:06:58;;;;;;;;;;;;;;;25.04;56.83;101073.72;7398079;19;1626;-40
2023/08/09 10:09:26;;;;;;;;;;;;;;;25.29;55.75;101077.31;6875597;19;10001069;-40
2023/08/09 10:11:56;;;;;;;;;;;;;;;25.19;56.03;101065.78;7388688;19;1504;-40
2023/08/09 10:14:26;;;;;;;;;;;;;;;25.16;56.40;101069.66;7392747;19;1488;-40
2023/08/09 10:16:57;;;;;;;;;;;;;;;25.14;56.33;101065.44;7390454;19;1848;-40
2023/08/09 10:19:26;;;;;;;;;;;;;;;25.13;56.49;101059.19;7392106;19;1671;-40
2023/08/09 10:21:55;;;;;;;;;;;;;;;25.12;56.44;101060.19;7392265;19;1623;-40
2023/08/09 10:24:23;;;;;;;;;;;;;;;25.17;56.45;101055.13;7392269;19;1808;-40
2023/08/09 10:26:54;;;;;;;;;;;;;;;25.12;56.46;101070.19;7392132;19;1560;-39
2023/08/09 10:29:23;;;;;;;;;;;;;;;25.10;56.54;101085.75;7390979;19;1322;-40
2023/08/09 10:31:54;;;;;;;;;;;;;;;25.10;56.72;101046.00;7392356;19;1754;-40
2023/08/09 10:34:34;;;;;;;;;;;;;;;25.11;56.58;101053.09;7391274;19;1653;-40
2023/08/09 10:37:02;;;;;;;;;;;;;;;25.10;56.80;101042.44;7390910;19;1865;-40
2023/08/09 10:39:31;;;;;;;;;;;;;;;25.08;56.99;101039.06;7391552;19;1492;-41
2023/08/09 10:42:01;;;;;;;;;;;;;;;25.10;57.13;101053.28;7391147;19;1828;-40
2023/08/09 10:44:50;;;;;;;;;;;;;;;25.12;56.91;101053.94;7390083;19;1489;-40
2023/08/09 10:47:22;;;;;;;;;;;;;;;25.12;56.89;101040.41;7387810;19;1884;-40
2023/08/09 10:50:04;;;;;;;;;;;;;;;25.10;56.59;101029.75;7385836;19;1500;-40
2023/08/09 10:52:36;;;;;;;;;;;;;;;25.13;56.90;101031.28;7388911;19;1547;-39
2023/08/09 10:55:25;;;;;;;;;;;;;;;25.13;57.16;101042.13;7390542;19;1422;-40
2023/08/09 10:57:53;;;;;;;;;;;;;;;25.10;57.21;101032.47;7388764;19;1850;-40
2023/08/09 11:00:23;;;;;;;;;;;;;;;25.12;57.18;101018.75;7391966;19;1433;-40
2023/08/09 11:02:52;;;;;;;;;;;;;;;25.11;57.04;101020.63;7391754;19;1215;-40
2023/08/09 11:05:23;;;;;;;;;;;;;;;25.09;57.21;101019.09;7391883;19;1457;-40
2023/08/09 11:07:53;;;;;;;;;;;;;;;25.10;57.51;101026.22;7392205;19;1098;-40
2023/08/09 11:10:36;;;;;;;;;;;;;;;25.11;57.24;101017.06;7387634;19;2282;-39
2023/08/09 11:13:05;;;;;;;;;;;;;;;25.11;57.31;101006.22;7390332;19;2349;-40
2023/08/09 11:15:33;;;;;;;;;;;;;;;25.12;57.40;101005.22;7389026;19;1332;-43
2023/08/09 11:18:02;;;;;;;;;;;;;;;25.12;57.53;101005.22;7389496;19;1852;-40
2023/08/09 11:20:33;;;;;;;;;;;;;;;25.13;57.34;100998.81;7387560;19;1534;-40
2023/08/09 11:23:02;;;;;;;;;;;;;;;25.11;57.51;101000.81;7389075;19;1561;-39
2023/08/09 11:25:31;;;;;;;;;;;;;;;25.13;57.14;100988.00;7388563;19;1527;-40
2023/08/09 11:28:00;;;;;;;;;;;;;;;25.14;57.40;100985.09;7389241;19;1552;-40
2023/08/09 11:30:31;;;;;;;;;;;;;;;25.15;57.27;100996.78;7389325;19;1579;-40
2023/08/09 11:33:00;;;;;;;;;;;;;;;25.16;57.20;100995.75;7390436;19;1913;-40
2023/08/09 11:35:39;;;;;;;;;;;;;;;25.15;57.33;100980.56;7387781;19;1950;-40
2023/08/09 11:38:09;;;;;;;;;;;;;;;25.16;57.50;100976.81;7387151;19;1850;-40
2023/08/09 11:40:41;;;;;;;;;;;;;;;25.19;57.56;100976.47;7389879;19;1397;-40
2023/08/09 11:43:12;;;;;;;;;;;;;;;25.18;57.09;100963.97;7390682;19;1759;-40
2023/08/09 11:45:55;;;;;;;;;;;;;;;25.22;57.23;100978.88;7390088;19;1582;-40
2023/08/09 11:48:27;;;;;;;;;;;;;;;25.19;57.14;100961.09;7389668;19;1203;-40
2023/08/09 11:51:09;;;;;;;;;;;;;;;25.21;57.29;100969.03;7389811;19;1584;-40
2023/08/09 11:53:38;;;;;;;;;;;;;;;25.20;57.25;100956.50;7388953;19;1584;-40
2023/08/09 11:56:07;;;;;;;;;;;;;;;25.22;57.22;100962.63;7388402;19;1439;-40
2023/08/09 11:58:37;;;;;;;;;;;;;;;25.24;57.21;100968.72;7385610;19;1844;-40
2023/08/09 12:01:18;;;;;;;;;;;;;;;25.24;57.48;100974.13;7388720;19;1527;-40
2023/08/09 12:03:47;;;;;;;;;;;;;;;25.26;57.31;100966.66;7389465;19;1571;-40
2023/08/09 12:06:19;;;;;;;;;;;;;;;25.28;57.22;100964.63;7388335;19;1483;-40
2023/08/09 12:08:47;;;;;;;;;;;;;;;25.25;57.26;100954.19;7386722;19;2265;-40
2023/08/09 12:11:19;;;;;;;;;;;;;;;25.22;57.20;100943.69;7387707;19;1519;-40
2023/08/09 12:13:47;;;;;;;;;;;;;;;25.22;57.47;100954.50;7388415;19;1490;-40
2023/08/09 12:16:15;;;;;;;;;;;;;;;25.19;57.83;100938.59;7388891;19;1558;-40
2023/08/09 12:18:43;;;;;;;;;;;;;;;25.23;57.86;100945.38;7384756;19;1852;-40
2023/08/09 12:21:12;;;;;;;;;;;;;;;25.22;57.85;100946.38;7389129;19;1643;-40
2023/08/09 12:23:43;;;;;;;;;;;;;;;25.20;57.88;100945.69;7395609;19;1779;-40
2023/08/09 12:26:11;;;;;;;;;;;;;;;25.23;57.60;100958.91;7395973;19;1560;-42
2023/08/09 12:28:39;;;;;;;;;;;;;;;25.21;58.04;100947.38;7397097;19;1530;-40
2023/08/09 12:31:08;;;;;;;;;;;;;;;25.18;57.96;100937.72;7393824;19;1655;-39
2023/08/09 12:33:37;;;;;;;;;;;;;;;25.17;58.18;100946.88;7396032;19;1594;-40
2023/08/09 12:36:05;;;;;;;;;;;;;;;25.18;57.93;100943.13;7393566;19;1791;-40
2023/08/09 12:38:33;;;;;;;;;;;;;;;25.05;57.95;100912.22;7392507;19;1842;-40
2023/08/09 12:41:04;;;;;;;;;;;;;;;25.16;58.20;100936.22;7393460;19;1486;-39
2023/08/09 12:43:33;;;;;;;;;;;;;;;25.19;58.23;100933.19;7395363;19;1531;-40
2023/08/09 12:46:01;;;;;;;;;;;;;;;25.19;58.13;100933.19;7395074;19;1492;-40
2023/08/09 12:48:30;;;;;;;;;;;;;;;25.16;58.04;100928.09;7394629;19;1746;-40
2023/08/09 12:50:58;;;;;;;;;;;;;;;25.18;58.25;100916.06;7395835;19;1630;-40
2023/08/09 12:53:26;;;;;;;;;;;;;;;25.18;58.11;100916.06;7391882;19;1435;-40
2023/08/09 12:55:55;;;;;;;;;;;;;;;25.20;58.29;100948.38;7394924;19;1545;-40
2023/08/09 12:58:26;;;;;;;;;;;;;;;25.21;58.41;100920.31;7322411;19;12624;-40
2023/08/09 13:00:54;;;;;;;;;;;;;;;25.20;58.41;100907.78;7394532;19;1576;-40